Time;durP1;ratioP1;P1;durP2;ratioP2;P2;SDS_P1;SDS_P2;PMS_P1;PMS_P2;Temp;Humidity;BMP_temperature;BMP_pressure;BME280_temperature;BME280_humidity;BME280_pressure;Samples;Min_cycle;Max_cycle;Signal;HPM_P1;HPM_P2
2023/08/17 00:01:16;;;;;;;19.15;10.18;;;;;;;26.02;63.14;100520.69;4241544;28;20248;-75
2023/08/17 00:03:43;;;;;;;21.98;10.10;;;;;;;25.89;63.92;100517.09;4234659;28;20227;-71
2023/08/17 00:06:10;;;;;;;20.55;8.82;;;;;;;25.94;63.73;100519.13;4216981;28;22365;-70
2023/08/17 00:08:37;;;;;;;15.23;8.90;;;;;;;25.99;63.51;100535.88;4230679;28;20420;-71
2023/08/17 00:11:03;;;;;;;26.52;10.10;;;;;;;25.94;64.02;100528.28;4234793;28;20231;-70
2023/08/17 00:13:30;;;;;;;16.65;9.60;;;;;;;25.90;63.98;100531.84;4222912;28;20466;-72
2023/08/17 00:15:56;;;;;;;13.30;9.27;;;;;;;26.03;62.93;100530.66;4223117;28;20331;-70
2023/08/17 00:18:23;;;;;;;18.90;8.63;;;;;;;26.12;62.47;100522.84;4218173;28;20422;-71
2023/08/17 00:20:50;;;;;;;17.33;8.90;;;;;;;26.38;61.66;100536.06;4238866;28;20282;-71
2023/08/17 00:23:16;;;;;;;16.25;9.15;;;;;;;26.35;61.55;100528.25;4211770;28;20239;-70
2023/08/17 00:25:43;;;;;;;21.85;9.27;;;;;;;26.21;62.50;100533.28;4229775;28;21960;-71
2023/08/17 00:28:09;;;;;;;19.10;9.30;;;;;;;26.28;62.64;100535.03;4225920;28;20237;-71
2023/08/17 00:30:37;;;;;;;15.70;9.45;;;;;;;26.08;63.10;100528.88;4225224;28;20686;-72
2023/08/17 00:33:04;;;;;;;16.42;10.30;;;;;;;25.87;63.72;100524.81;4226121;28;20316;-72
2023/08/17 00:35:32;;;;;;;17.58;9.23;;;;;;;26.15;63.05;100531.50;4232580;28;20296;-71
2023/08/17 00:37:59;;;;;;;16.13;9.37;;;;;;;26.24;62.81;100532.78;4232253;28;20237;-71
2023/08/17 00:40:26;;;;;;;14.27;9.30;;;;;;;26.44;62.23;100525.06;4216364;28;20313;-70
2023/08/17 00:42:53;;;;;;;16.25;9.20;;;;;;;26.06;64.20;100531.00;4225340;28;20312;-69
2023/08/17 00:45:19;;;;;;;12.77;10.07;;;;;;;26.04;64.13;100524.03;4229979;28;20262;-72
2023/08/17 00:47:46;;;;;;;16.40;9.93;;;;;;;25.93;64.43;100532.19;4226611;28;20236;-70
2023/08/17 00:50:13;;;;;;;22.55;10.00;;;;;;;26.08;63.65;100539.13;4226654;28;20355;-73
2023/08/17 00:52:41;;;;;;;14.50;10.15;;;;;;;26.24;62.99;100541.13;4235798;28;20235;-71
2023/08/17 00:55:09;;;;;;;17.98;10.05;;;;;;;26.29;62.99;100542.28;4202730;28;20668;-71
2023/08/17 00:57:36;;;;;;;18.90;9.63;;;;;;;26.41;61.97;100541.13;4213435;28;22783;-74
2023/08/17 01:00:04;;;;;;;17.88;9.60;;;;;;;26.57;61.52;100527.50;4227189;28;20239;-70
2023/08/17 01:02:32;;;;;;;17.13;9.73;;;;;;;26.77;61.19;100529.81;4234452;28;20257;-70
2023/08/17 01:05:00;;;;;;;16.05;9.95;;;;;;;26.61;61.61;100525.91;4204818;28;22069;-70
2023/08/17 01:07:27;;;;;;;19.33;11.20;;;;;;;26.25;62.65;100528.06;4239351;28;20239;-71
2023/08/17 01:09:54;;;;;;;22.65;11.25;;;;;;;26.03;63.56;100525.97;4224686;28;20947;-71
2023/08/17 01:12:29;;;;;;;18.58;10.35;;;;;;;26.06;63.96;100531.00;4218860;28;20236;-70
2023/08/17 01:15:03;;;;;;;18.23;10.00;;;;;;;26.04;63.93;100538.75;4212135;28;20298;-71
2023/08/17 01:17:33;;;;;;;18.98;10.55;;;;;;;25.78;65.03;100529.09;4238001;28;20610;-71
2023/08/17 01:20:00;;;;;;;16.55;10.02;;;;;;;25.75;64.74;100524.91;4221843;28;21735;-70
2023/08/17 01:22:30;;;;;;;19.00;9.75;;;;;;;25.89;64.88;100530.16;4219591;28;20700;-70
2023/08/17 01:24:59;;;;;;;21.70;11.55;;;;;;;25.66;65.42;100526.38;4234448;28;20231;-70
2023/08/17 01:27:29;;;;;;;18.45;11.27;;;;;;;25.51;65.92;100531.59;4218246;28;20377;-71
2023/08/17 01:29:56;;;;;;;15.32;10.48;;;;;;;25.54;65.84;100520.00;4235634;28;20238;-69
2023/08/17 01:32:31;;;;;;;20.10;10.63;;;;;;;25.47;66.01;100520.97;4223539;28;20266;-71
2023/08/17 01:35:02;;;;;;;16.80;10.00;;;;;;;25.62;65.85;100514.06;4226891;28;20270;-70
2023/08/17 01:37:31;;;;;;;16.13;9.90;;;;;;;25.57;66.57;100513.97;4220905;28;20231;-70
2023/08/17 01:39:59;;;;;;;22.33;10.27;;;;;;;25.52;66.42;100513.88;4230900;28;21983;-70
2023/08/17 01:42:25;;;;;;;27.02;10.77;;;;;;;25.45;66.83;100517.59;4230572;28;23094;-72
2023/08/17 01:44:52;;;;;;;14.70;10.20;;;;;;;25.32;66.93;100526.16;4212088;28;20233;-71
2023/08/17 01:47:22;;;;;;;17.67;10.63;;;;;;;25.53;66.62;100526.66;4229363;28;25243;-71
2023/08/17 01:49:49;;;;;;;18.85;10.63;;;;;;;25.46;66.52;100524.00;4228766;28;23499;-72
2023/08/17 01:52:16;;;;;;;16.75;10.23;;;;;;;25.31;67.75;100518.94;4222943;28;22875;-71
2023/08/17 01:54:42;;;;;;;20.30;11.23;;;;;;;25.29;67.28;100530.28;4210517;28;20325;-71
2023/08/17 01:57:09;;;;;;;15.70;10.38;;;;;;;25.44;67.10;100526.16;4234507;28;20361;-71
2023/08/17 01:59:36;;;;;;;18.97;11.30;;;;;;;25.45;67.57;100520.38;4234453;28;20243;-69
2023/08/17 02:02:02;;;;;;;19.45;10.68;;;;;;;25.23;68.06;100524.84;4224400;28;20442;-71
2023/08/17 02:04:29;;;;;;;16.42;10.73;;;;;;;25.15;68.92;100526.06;4227163;28;20310;-71
2023/08/17 02:06:55;;;;;;;20.90;11.15;;;;;;;25.05;68.62;100515.63;4236163;28;20344;-70
2023/08/17 02:09:22;;;;;;;21.00;11.70;;;;;;;25.11;68.05;100508.28;4226414;28;20309;-71
2023/08/17 02:11:51;;;;;;;21.27;11.35;;;;;;;25.12;68.18;100507.16;4225487;28;22844;-71
2023/08/17 02:14:18;;;;;;;16.63;11.73;;;;;;;24.93;69.40;100506.44;4255385;28;20296;-70
2023/08/17 02:16:44;;;;;;;21.80;11.98;;;;;;;24.89;68.88;100510.81;4223137;28;20228;-71
2023/08/17 02:19:11;;;;;;;22.05;10.27;;;;;;;24.91;68.97;100511.41;4217337;28;20491;-71
2023/08/17 02:21:38;;;;;;;25.42;11.82;;;;;;;24.90;69.74;100506.94;4240058;28;20240;-71
2023/08/17 02:24:05;;;;;;;14.80;11.00;;;;;;;24.99;69.07;100513.81;4235678;28;20235;-71
2023/08/17 02:26:31;;;;;;;16.85;10.20;;;;;;;25.03;69.05;100505.88;4236139;28;20293;-74
2023/08/17 02:28:58;;;;;;;17.77;10.50;;;;;;;25.25;68.67;100517.13;4225781;28;20717;-71
2023/08/17 02:31:24;;;;;;;17.27;10.82;;;;;;;24.96;69.48;100511.53;4236410;28;20235;-70
2023/08/17 02:33:51;;;;;;;18.17;11.52;;;;;;;24.90;69.17;100510.53;4233567;28;20319;-70
2023/08/17 02:36:18;;;;;;;20.38;11.32;;;;;;;24.75;69.95;100510.19;4223032;28;21563;-69
2023/08/17 02:38:44;;;;;;;24.77;11.52;;;;;;;24.66;70.56;100509.69;4230273;28;20246;-71
2023/08/17 02:41:11;;;;;;;21.33;11.57;;;;;;;24.60;70.48;100500.41;4234942;28;20234;-70
2023/08/17 02:43:37;;;;;;;21.88;11.68;;;;;;;24.63;70.57;100515.69;4231436;28;20238;-72
2023/08/17 02:46:06;;;;;;;26.60;12.00;;;;;;;24.68;70.23;100508.38;4232522;28;22454;-70
2023/08/17 02:48:33;;;;;;;28.13;12.77;;;;;;;24.61;70.66;100506.78;4229257;28;20266;-70
2023/08/17 02:51:01;;;;;;;18.73;11.85;;;;;;;24.68;70.54;100507.56;4231370;28;25584;-71
2023/08/17 02:53:27;;;;;;;21.27;12.17;;;;;;;24.68;70.24;100499.25;4229324;28;20231;-71
2023/08/17 02:55:54;;;;;;;22.23;11.95;;;;;;;24.59;70.24;100512.53;4240623;28;20737;-73
2023/08/17 02:58:20;;;;;;;26.88;13.10;;;;;;;24.56;70.31;100510.28;4228378;28;20632;-71
2023/08/17 03:00:47;;;;;;;24.55;12.07;;;;;;;24.52;70.73;100518.22;4215331;28;20238;-71
2023/08/17 03:03:13;;;;;;;28.23;12.18;;;;;;;24.54;70.08;100531.81;4227259;28;20243;-70
2023/08/17 03:05:40;;;;;;;27.38;11.90;;;;;;;24.55;70.25;100525.19;4237783;28;20236;-71
2023/08/17 03:08:07;;;;;;;19.75;11.73;;;;;;;24.42;70.33;100523.47;4233651;28;21133;-70
2023/08/17 03:10:33;;;;;;;24.33;12.20;;;;;;;24.45;70.53;100524.91;4232662;28;20294;-71
2023/08/17 03:13:00;;;;;;;22.40;12.32;;;;;;;24.40;70.72;100530.34;4228776;28;20239;-72
2023/08/17 03:15:27;;;;;;;23.08;11.88;;;;;;;24.43;70.49;100529.88;4237176;28;20439;-71
2023/08/17 03:17:53;;;;;;;22.65;11.20;;;;;;;24.53;69.86;100528.19;4234218;28;21072;-71
2023/08/17 03:20:20;;;;;;;22.87;12.63;;;;;;;24.52;70.11;100533.97;4229456;28;21651;-71
2023/08/17 03:22:47;;;;;;;24.27;12.68;;;;;;;24.34;70.42;100540.41;4217732;28;20302;-70
2023/08/17 03:25:14;;;;;;;21.92;11.93;;;;;;;24.31;71.27;100546.44;4216650;28;26018;-71
2023/08/17 03:27:40;;;;;;;21.15;11.63;;;;;;;24.31;71.13;100555.56;4230897;28;20231;-72
2023/08/17 03:30:07;;;;;;;28.30;12.52;;;;;;;24.43;70.21;100554.78;4231621;28;20425;-70
2023/08/17 03:32:35;;;;;;;21.88;12.45;;;;;;;24.30;70.74;100561.34;4218096;28;20650;-71
2023/08/17 03:35:02;;;;;;;18.58;12.38;;;;;;;24.42;70.08;100555.84;4227400;28;21422;-70
2023/08/17 03:37:29;;;;;;;21.60;12.50;;;;;;;24.42;70.44;100558.63;4238335;28;20239;-70
2023/08/17 03:39:55;;;;;;;32.63;12.60;;;;;;;24.36;70.40;100557.63;4227937;28;20232;-69
2023/08/17 03:42:22;;;;;;;18.77;11.80;;;;;;;24.36;70.71;100563.16;4226241;28;20286;-69
2023/08/17 03:44:48;;;;;;;26.08;13.05;;;;;;;24.39;71.07;100564.63;4241217;28;20299;-70
2023/08/17 03:47:15;;;;;;;20.67;12.88;;;;;;;24.62;69.91;100548.06;4229411;28;22367;-70
2023/08/17 03:49:42;;;;;;;19.05;11.25;;;;;;;24.46;70.34;100543.22;4216817;28;20286;-69
2023/08/17 03:52:08;;;;;;;24.87;11.43;;;;;;;24.55;70.11;100552.88;4231142;28;20232;-71
2023/08/17 03:54:35;;;;;;;25.42;11.85;;;;;;;24.47;70.57;100555.97;4236563;28;20238;-70
2023/08/17 03:57:02;;;;;;;21.90;11.98;;;;;;;24.55;70.09;100561.16;4219906;28;20322;-71
2023/08/17 03:59:29;;;;;;;17.90;11.70;;;;;;;24.53;69.80;100560.56;4227048;28;21325;-71
2023/08/17 04:01:55;;;;;;;22.43;11.27;;;;;;;24.60;69.63;100561.28;4229030;28;20248;-72
2023/08/17 04:04:22;;;;;;;19.20;11.80;;;;;;;24.54;69.58;100553.94;4269857;28;21975;-70
2023/08/17 04:06:49;;;;;;;21.93;11.33;;;;;;;24.71;69.25;100559.66;4290711;28;20852;-70
2023/08/17 04:09:16;;;;;;;24.58;10.80;;;;;;;24.75;68.72;100560.00;4294651;28;20242;-70
2023/08/17 04:11:44;;;;;;;16.05;11.30;;;;;;;24.73;68.95;100556.66;4299929;28;21137;-71
2023/08/17 04:14:12;;;;;;;25.67;12.52;;;;;;;24.97;67.58;100560.28;4297260;28;20239;-70
2023/08/17 04:16:39;;;;;;;16.30;10.57;;;;;;;25.10;65.73;100564.75;4300546;28;22010;-69
2023/08/17 04:19:06;;;;;;;20.85;10.77;;;;;;;25.03;66.05;100561.25;4296770;28;25570;-74
2023/08/17 04:21:32;;;;;;;18.50;10.60;;;;;;;25.09;65.40;100572.19;4396957;28;21042;-71
2023/08/17 04:24:04;;;;;;;16.45;10.35;;;;;;;25.05;65.55;100568.25;4346773;28;21856;-71
2023/08/17 04:26:31;;;;;;;21.58;10.30;;;;;;;25.07;64.69;100567.97;4427968;28;20235;-71
2023/08/17 04:28:58;;;;;;;24.90;11.32;;;;;;;25.02;64.53;100565.09;4389218;28;20239;-69
2023/08/17 04:31:28;;;;;;;14.48;9.85;;;;;;;25.09;64.77;100568.59;4349027;28;21175;-71
2023/08/17 04:33:56;;;;;;;18.88;9.85;;;;;;;25.13;64.74;100559.56;4378478;28;20232;-73
2023/08/17 04:36:23;;;;;;;24.73;9.93;;;;;;;25.13;64.08;100562.34;4334382;28;20241;-71
2023/08/17 04:38:50;;;;;;;18.20;9.77;;;;;;;25.14;64.58;100557.63;4303482;28;22094;-70
2023/08/17 04:41:16;;;;;;;19.45;10.10;;;;;;;25.27;62.91;100559.31;4247350;28;20252;-72
2023/08/17 04:43:43;;;;;;;20.60;9.27;;;;;;;25.30;63.03;100567.97;4251665;28;20645;-71
2023/08/17 04:46:10;;;;;;;14.70;8.98;;;;;;;25.40;62.08;100572.09;4257898;28;22872;-69
2023/08/17 04:48:36;;;;;;;25.08;10.00;;;;;;;25.51;60.82;100568.44;4239852;28;20914;-68
2023/08/17 04:51:03;;;;;;;20.95;9.88;;;;;;;25.42;61.36;100565.22;4224055;28;20227;-68
2023/08/17 04:53:30;;;;;;;15.63;8.93;;;;;;;25.47;61.81;100565.31;4251046;28;20287;-69
2023/08/17 04:55:58;;;;;;;21.10;9.37;;;;;;;25.44;60.55;100565.84;4242596;28;21353;-68
2023/08/17 04:58:25;;;;;;;17.80;9.40;;;;;;;25.42;61.12;100567.13;4210528;28;20355;-69
2023/08/17 05:00:51;;;;;;;30.13;10.82;;;;;;;25.57;61.23;100572.19;4251872;28;20724;-68
2023/08/17 05:03:18;;;;;;;16.58;8.65;;;;;;;25.70;60.26;100571.91;4250505;28;21426;-67
2023/08/17 05:05:58;;;;;;;13.77;8.30;;;;;;;25.86;59.09;100578.63;4239721;28;20243;-70
2023/08/17 05:08:25;;;;;;;15.70;8.52;;;;;;;25.81;59.17;100574.91;4237790;28;20238;-68
2023/08/17 05:10:51;;;;;;;14.02;8.40;;;;;;;26.14;57.55;100576.13;4242742;28;20233;-70
2023/08/17 05:13:19;;;;;;;16.90;7.67;;;;;;;26.12;58.09;100575.53;4233816;28;20238;-72
2023/08/17 05:15:46;;;;;;;12.48;7.80;;;;;;;26.00;58.31;100570.00;4239565;28;20238;-72
2023/08/17 05:18:12;;;;;;;20.00;7.40;;;;;;;26.19;57.10;100577.06;4230142;28;20224;-71
2023/08/17 05:20:39;;;;;;;20.60;8.38;;;;;;;26.13;57.48;100580.84;4215980;28;21764;-71
2023/08/17 05:23:05;;;;;;;14.80;7.45;;;;;;;26.12;56.99;100587.47;4237802;28;20243;-70
2023/08/17 05:25:32;;;;;;;17.25;7.25;;;;;;;26.41;56.16;100577.22;4241859;28;22160;-72
2023/08/17 05:27:59;;;;;;;24.83;7.75;;;;;;;26.50;55.78;100582.34;4230703;28;21916;-70
2023/08/17 05:30:25;;;;;;;16.70;6.95;;;;;;;26.17;56.70;100572.88;4231338;28;20312;-73
2023/08/17 05:32:52;;;;;;;18.80;7.03;;;;;;;25.93;57.31;100587.66;4230307;28;20232;-73
2023/08/17 05:35:18;;;;;;;20.10;7.43;;;;;;;25.78;57.65;100574.28;4222456;28;22130;-73
2023/08/17 05:37:45;;;;;;;13.55;7.32;;;;;;;25.77;57.77;100577.31;4237944;28;20232;-76
2023/08/17 05:40:12;;;;;;;18.97;7.70;;;;;;;25.73;57.97;100579.75;4228569;28;21601;-74
2023/08/17 05:42:38;;;;;;;20.77;7.72;;;;;;;25.74;57.79;100575.88;4245676;28;20246;-72
2023/08/17 05:45:06;;;;;;;16.60;6.95;;;;;;;25.70;57.58;100577.44;4247018;28;20239;-71
2023/08/17 05:47:32;;;;;;;12.27;6.35;;;;;;;25.75;57.54;100569.25;4242153;28;21364;-72
2023/08/17 05:49:59;;;;;;;16.27;7.03;;;;;;;25.56;58.21;100562.19;4235288;28;20226;-72
2023/08/17 05:52:25;;;;;;;20.13;7.23;;;;;;;25.57;57.77;100556.38;4222362;28;21722;-74
2023/08/17 05:54:52;;;;;;;17.33;6.87;;;;;;;25.73;57.50;100556.69;4216773;28;20911;-72
2023/08/17 05:57:18;;;;;;;19.95;7.25;;;;;;;25.70;57.47;100557.22;4238341;28;20553;-71
2023/08/17 05:59:45;;;;;;;15.50;7.43;;;;;;;25.70;57.61;100557.22;4237066;28;20240;-72
2023/08/17 06:02:12;;;;;;;15.55;7.07;;;;;;;25.76;57.27;100551.50;4239977;28;22915;-74
2023/08/17 06:04:38;;;;;;;11.87;7.10;;;;;;;25.81;57.36;100547.16;4241282;28;20284;-72
2023/08/17 06:07:06;;;;;;;14.20;6.80;;;;;;;25.73;57.96;100551.16;4235980;28;20253;-77
2023/08/17 06:09:32;;;;;;;11.95;6.47;;;;;;;25.66;57.96;100550.47;4227923;28;20269;-72
2023/08/17 06:11:59;;;;;;;15.57;7.10;;;;;;;25.72;57.44;100549.50;4257305;28;20303;-73
2023/08/17 06:14:25;;;;;;;24.27;7.65;;;;;;;25.76;57.45;100557.06;4249810;28;21410;-73
2023/08/17 06:16:52;;;;;;;15.70;7.30;;;;;;;25.83;57.05;100551.38;4240464;28;20231;-73
2023/08/17 06:19:19;;;;;;;17.63;7.27;;;;;;;26.07;56.13;100560.47;4230615;28;20228;-71
2023/08/17 06:21:45;;;;;;;14.63;6.13;;;;;;;26.18;55.65;100553.19;4282673;28;20224;-74
2023/08/17 06:24:12;;;;;;;14.93;6.43;;;;;;;26.38;54.78;100563.81;4246452;28;20317;-74
2023/08/17 06:26:39;;;;;;;18.67;7.67;;;;;;;26.52;54.49;100567.13;4239599;28;20270;-73
2023/08/17 06:29:05;;;;;;;13.27;6.93;;;;;;;26.60;54.08;100571.41;4241922;28;25560;-73
2023/08/17 06:31:33;;;;;;;15.20;6.82;;;;;;;26.66;53.52;100561.25;4247884;28;20596;-73
2023/08/17 06:34:01;;;;;;;21.33;7.20;;;;;;;26.74;53.22;100566.38;4250070;28;21430;-72
2023/08/17 06:36:31;;;;;;;19.63;7.05;;;;;;;26.73;53.54;100570.25;4248033;28;21228;-72
2023/08/17 06:39:00;;;;;;;14.63;6.65;;;;;;;26.87;53.13;100581.91;4236934;28;20313;-75
2023/08/17 06:41:27;;;;;;;20.97;6.97;;;;;;;26.93;53.12;100580.88;4268034;28;20386;-72
2023/08/17 06:43:54;;;;;;;12.38;6.93;;;;;;;26.89;53.31;100579.69;4262792;28;20236;-72
2023/08/17 06:46:21;;;;;;;18.10;6.90;;;;;;;26.88;53.32;100578.84;4221661;28;20543;-73
2023/08/17 06:48:48;;;;;;;16.98;6.30;;;;;;;26.73;53.69;100581.34;4236310;28;20238;-74
2023/08/17 06:51:14;;;;;;;16.95;6.68;;;;;;;26.63;54.28;100572.84;4235520;28;21192;-73
2023/08/17 06:53:41;;;;;;;19.10;7.13;;;;;;;26.87;53.92;100579.13;4244041;28;21199;-72
2023/08/17 06:56:09;;;;;;;13.82;6.90;;;;;;;26.97;53.70;100584.00;4232354;28;22330;-71
2023/08/17 06:58:36;;;;;;;19.63;6.45;;;;;;;27.22;53.20;100583.53;4244285;28;20280;-73
2023/08/17 07:01:02;;;;;;;15.02;6.30;;;;;;;27.45;52.28;100584.44;4234509;28;23144;-74
2023/08/17 07:03:29;;;;;;;16.35;7.47;;;;;;;27.20;52.60;100586.59;4231144;28;20845;-72
2023/08/17 07:05:55;;;;;;;15.05;7.35;;;;;;;27.22;53.08;100588.28;4244559;28;20301;-74
2023/08/17 07:08:22;;;;;;;19.60;7.23;;;;;;;27.36;52.57;100589.59;4233201;28;20227;-74
2023/08/17 07:10:49;;;;;;;20.10;7.32;;;;;;;27.54;52.17;100587.63;4241989;28;21958;-78
2023/08/17 07:13:15;;;;;;;13.35;7.05;;;;;;;27.58;52.19;100586.00;4243855;28;20408;-73
2023/08/17 07:15:42;;;;;;;14.25;7.13;;;;;;;27.78;51.57;100593.78;4225960;28;21001;-75
2023/08/17 07:18:09;;;;;;;14.93;7.18;;;;;;;27.84;51.11;100596.34;4227847;28;20298;-74
2023/08/17 07:20:35;;;;;;;17.07;7.17;;;;;;;27.65;52.54;100593.06;4226722;28;20346;-75
2023/08/17 07:23:02;;;;;;;22.50;7.70;;;;;;;27.97;52.20;100595.13;4239280;28;21531;-75
2023/08/17 07:25:29;;;;;;;16.75;7.10;;;;;;;28.38;50.31;100597.53;4229640;28;20235;-73
2023/08/17 07:27:56;;;;;;;20.53;7.10;;;;;;;28.85;49.17;100601.66;4243076;28;20283;-76
2023/08/17 07:30:22;;;;;;;17.50;8.00;;;;;;;28.69;50.40;100600.66;4226482;28;20681;-76
2023/08/17 07:32:49;;;;;;;10.05;5.90;;;;;;;29.00;48.28;100600.09;4242093;28;22797;-76
2023/08/17 07:35:16;;;;;;;16.70;7.30;;;;;;;28.93;48.63;100605.88;4216799;28;20285;-74
2023/08/17 07:37:42;;;;;;;10.65;6.43;;;;;;;28.61;49.19;100606.69;4223240;28;20232;-78
2023/08/17 07:40:21;;;;;;;15.15;7.22;;;;;;;28.19;51.65;100604.59;4235553;28;20238;-79
2023/08/17 07:42:48;;;;;;;15.45;7.10;;;;;;;28.34;51.75;100589.97;4234001;28;21256;-75
2023/08/17 07:45:15;;;;;;;19.95;7.20;;;;;;;28.44;50.47;100590.91;4230817;28;20286;-76
2023/08/17 07:47:41;;;;;;;17.63;6.70;;;;;;;28.38;50.69;100580.00;4247839;28;20236;-74
2023/08/17 07:50:08;;;;;;;17.45;7.30;;;;;;;28.38;51.17;100588.38;4247309;28;20239;-74
2023/08/17 07:52:35;;;;;;;15.23;7.03;;;;;;;28.88;48.34;100587.16;4244219;28;20250;-77
2023/08/17 07:55:03;;;;;;;14.77;6.97;;;;;;;29.28;48.01;100584.94;4228445;28;20399;-76
2023/08/17 07:57:29;;;;;;;20.40;7.63;;;;;;;29.43;47.49;100581.44;4231442;28;20432;-79
2023/08/17 07:59:56;;;;;;;15.95;7.13;;;;;;;29.52;47.22;100582.59;4259742;28;21597;-78
2023/08/17 08:02:23;;;;;;;19.25;7.22;;;;;;;29.32;47.39;100588.91;4254295;28;20336;-75
2023/08/17 08:04:49;;;;;;;14.98;6.97;;;;;;;29.57;46.74;100592.94;4234076;28;20234;-76
2023/08/17 08:07:16;;;;;;;17.13;7.07;;;;;;;29.64;46.89;100598.25;4226506;28;20234;-76
2023/08/17 08:09:43;;;;;;;15.65;7.28;;;;;;;29.34;47.37;100585.84;4241078;28;20269;-75
2023/08/17 08:12:09;;;;;;;17.67;6.90;;;;;;;29.39;48.00;100589.50;4255817;28;20232;-75
2023/08/17 08:14:36;;;;;;;14.55;7.63;;;;;;;29.43;48.27;100587.00;4236557;28;20236;-72
2023/08/17 08:17:03;;;;;;;13.68;7.13;;;;;;;29.75;46.26;100590.78;4237831;28;20563;-73
2023/08/17 08:19:29;;;;;;;13.90;6.65;;;;;;;29.42;46.94;100585.31;4236778;28;20232;-76
2023/08/17 08:21:56;;;;;;;21.02;7.88;;;;;;;29.31;47.63;100586.34;4242695;28;21100;-73
2023/08/17 08:24:23;;;;;;;14.75;6.75;;;;;;;29.66;47.38;100598.84;4234184;28;20640;-73
2023/08/17 08:27:03;;;;;;;15.32;7.28;;;;;;;29.80;46.50;100594.44;4233081;28;20232;-71
2023/08/17 08:29:30;;;;;;;18.73;6.45;;;;;;;29.82;46.26;100599.72;4247280;28;20623;-69
2023/08/17 08:31:59;;;;;;;20.48;6.85;;;;;;;29.97;45.71;100604.59;4244252;28;20239;-74
2023/08/17 08:34:25;;;;;;;16.38;7.30;;;;;;;29.80;46.42;100605.59;4240552;28;20286;-74
2023/08/17 08:36:52;;;;;;;18.58;7.78;;;;;;;29.76;46.45;100606.41;4238254;28;20243;-72
2023/08/17 08:39:19;;;;;;;20.73;7.38;;;;;;;30.11;46.06;100602.94;4262192;28;20234;-75
2023/08/17 08:41:45;;;;;;;17.40;7.35;;;;;;;30.22;45.88;100600.16;4221497;28;22870;-78
2023/08/17 08:44:12;;;;;;;19.40;7.63;;;;;;;30.39;45.13;100591.56;4237466;28;20336;-73
2023/08/17 08:46:43;;;;;;;21.23;7.88;;;;;;;30.43;45.23;100590.75;4244078;28;20242;-76
2023/08/17 08:49:10;;;;;;;18.23;7.78;;;;;;;30.42;45.22;100591.84;4245160;28;21367;-67
2023/08/17 08:51:41;;;;;;;15.80;6.97;;;;;;;30.96;44.47;100598.03;4240587;28;21184;-66
2023/08/17 08:54:13;;;;;;;11.52;6.93;;;;;;;30.98;44.22;100595.78;4255804;28;20627;-67
2023/08/17 08:56:43;;;;;;;15.77;7.03;;;;;;;31.08;44.42;100600.56;4229672;28;21298;-44
2023/08/17 08:59:14;;;;;;;13.60;7.00;;;;;;;30.90;44.66;100600.00;4275142;28;26966;-71
2023/08/17 09:01:41;;;;;;;12.18;7.15;;;;;;;31.07;44.11;100596.91;4238916;28;21901;-69
2023/08/17 09:04:08;;;;;;;19.60;7.25;;;;;;;30.98;44.20;100601.38;4260551;28;20622;-75
2023/08/17 09:06:36;;;;;;;18.00;7.22;;;;;;;30.79;44.93;100601.09;4258641;28;20223;-73
2023/08/17 09:09:03;;;;;;;13.98;7.05;;;;;;;31.39;43.43;100597.69;4220850;28;21131;-74
2023/08/17 16:48:47;;;;;;;8.63;3.30;;;;;;;31.02;36.80;100501.88;4250054;27;20582;-74
2023/08/17 16:51:14;;;;;;;12.88;3.42;;;;;;;31.04;35.89;100501.56;4248035;28;20932;-77
2023/08/17 20:44:06;;;;;;;13.55;6.32;;;;;;;25.21;55.32;100535.34;4280168;27;20565;-72
2023/08/17 20:46:32;;;;;;;12.57;6.18;;;;;;;25.20;55.36;100542.81;4268799;28;20225;-72
2023/08/17 20:51:50;;;;;;;16.20;6.93;;;;;;;25.10;55.46;100540.66;4297434;27;20541;-72
2023/08/17 20:54:16;;;;;;;19.33;6.72;;;;;;;25.10;55.39;100531.50;4270412;28;20225;-67
2023/08/17 20:56:43;;;;;;;14.07;7.15;;;;;;;25.03;55.57;100534.38;4273756;28;20240;-72
2023/08/17 20:59:09;;;;;;;14.10;6.68;;;;;;;25.05;55.62;100548.84;4268177;28;20227;-69
2023/08/17 21:01:36;;;;;;;15.50;6.50;;;;;;;24.93;56.04;100534.13;4244485;28;21711;-69
2023/08/17 21:04:03;;;;;;;16.93;6.73;;;;;;;24.87;56.56;100548.94;4265423;28;20237;-67
2023/08/17 21:06:29;;;;;;;18.43;7.07;;;;;;;24.93;56.29;100545.22;4268568;28;20292;-68
2023/08/17 21:08:56;;;;;;;19.65;7.00;;;;;;;24.81;56.86;100543.31;4278620;28;20224;-68
2023/08/17 21:11:22;;;;;;;12.20;6.28;;;;;;;24.77;56.49;100541.25;4265582;28;20234;-69
2023/08/17 21:13:49;;;;;;;15.07;6.63;;;;;;;24.78;56.58;100529.94;4281426;28;20316;-68
2023/08/17 21:16:17;;;;;;;14.30;6.72;;;;;;;24.94;56.06;100533.91;4280848;28;20229;-69
2023/08/17 21:18:44;;;;;;;16.35;6.28;;;;;;;25.00;55.63;100529.34;4270651;28;20225;-68
2023/08/17 21:21:10;;;;;;;16.58;6.80;;;;;;;24.81;56.49;100537.75;4261664;28;20283;-67
2023/08/17 21:23:37;;;;;;;15.48;6.18;;;;;;;24.92;55.72;100530.53;4264347;28;20231;-70
2023/08/17 21:26:03;;;;;;;17.13;5.97;;;;;;;24.94;55.59;100528.38;4251898;28;20233;-69
2023/08/17 21:28:30;;;;;;;15.35;6.63;;;;;;;24.86;56.17;100538.97;4264831;28;20295;-70
2023/08/17 21:31:01;;;;;;;13.70;7.00;;;;;;;24.71;56.36;100540.28;4264351;28;22629;-69
2023/08/17 21:33:28;;;;;;;16.75;7.10;;;;;;;24.80;56.12;100530.53;4274829;28;21526;-70
2023/08/17 21:35:58;;;;;;;13.60;6.15;;;;;;;24.86;55.72;100528.75;4271094;28;20510;-70
2023/08/17 21:38:25;;;;;;;18.50;6.80;;;;;;;24.75;56.17;100527.66;4262962;28;21637;-70
2023/08/17 21:40:58;;;;;;;14.65;6.65;;;;;;;24.67;56.53;100528.00;4267259;28;20488;-71
2023/08/17 21:43:25;;;;;;;21.10;6.75;;;;;;;24.75;55.93;100530.41;4266205;28;20260;-69
2023/08/17 21:45:56;;;;;;;18.23;7.20;;;;;;;24.81;55.56;100523.09;4241165;28;21603;-69
2023/08/17 21:48:23;;;;;;;13.03;5.97;;;;;;;24.76;55.95;100529.34;4247824;28;20249;-70
2023/08/17 21:50:49;;;;;;;16.65;6.55;;;;;;;24.64;56.26;100532.06;4229095;28;20853;-71
2023/08/17 21:53:17;;;;;;;17.60;6.13;;;;;;;24.72;55.66;100535.59;4235929;28;20247;-70
2023/08/17 21:55:48;;;;;;;19.17;6.53;;;;;;;24.66;56.09;100542.88;4241127;28;20242;-69
2023/08/17 21:58:15;;;;;;;23.37;7.17;;;;;;;24.60;56.05;100539.16;4255756;28;20236;-72
2023/08/17 22:00:42;;;;;;;13.05;6.18;;;;;;;24.57;56.10;100545.19;4256828;28;23221;-73
2023/08/17 22:03:12;;;;;;;20.42;6.90;;;;;;;24.55;56.20;100541.78;4234743;28;21111;-71
2023/08/17 22:05:39;;;;;;;25.55;6.78;;;;;;;24.68;55.58;100538.00;4226293;28;20253;-70
2023/08/17 22:08:06;;;;;;;13.93;6.68;;;;;;;24.67;55.88;100528.00;4251475;28;20238;-72
2023/08/17 22:10:32;;;;;;;14.10;6.15;;;;;;;24.62;55.92;100530.63;4242903;28;20413;-69
2023/08/17 22:12:59;;;;;;;15.32;7.05;;;;;;;24.58;56.37;100521.97;4261137;28;20226;-69
2023/08/17 22:15:25;;;;;;;15.75;6.15;;;;;;;24.51;56.41;100521.19;4254661;28;20246;-71
2023/08/17 22:17:52;;;;;;;14.63;6.67;;;;;;;24.49;56.56;100523.38;4250309;28;20233;-68
2023/08/17 22:20:19;;;;;;;17.83;6.30;;;;;;;24.47;56.61;100512.53;4242157;28;25036;-71
2023/08/17 22:22:46;;;;;;;11.75;6.38;;;;;;;24.53;56.29;100524.56;4242515;28;20235;-70
2023/08/17 22:25:12;;;;;;;18.37;6.37;;;;;;;24.58;56.09;100524.72;4220800;28;20668;-69
2023/08/17 22:27:39;;;;;;;13.33;5.10;;;;;;;24.50;56.63;100534.19;4235164;28;20226;-70
2023/08/17 22:30:06;;;;;;;10.15;5.18;;;;;;;24.44;56.29;100545.38;4248474;28;20532;-69
2023/08/17 22:32:32;;;;;;;22.13;5.93;;;;;;;24.47;56.16;100542.13;4252764;28;21685;-69
2023/08/17 22:34:59;;;;;;;19.40;6.10;;;;;;;24.49;56.23;100546.34;4255586;28;20240;-71
2023/08/17 22:37:25;;;;;;;16.85;5.50;;;;;;;24.51;55.93;100546.09;4246941;28;20232;-71
2023/08/17 22:41:43;;;;;;;8.68;5.72;;;;;;;24.52;56.13;100568.03;4245638;27;22161;-69
2023/08/17 22:44:11;;;;;;;14.77;5.50;;;;;;;24.58;55.79;100574.53;4245291;28;20764;-69
2023/08/17 22:46:37;;;;;;;12.02;5.05;;;;;;;24.61;56.03;100587.06;4253135;28;20229;-69